PWSweather.com
Personal Weather Stations
Station Observations
LEONMETEO
LeonES 24008

LeonES 24008

Lat: 42.6055559, Lon: -5.5752249

Elevation: 2690

Station Type: La Crosse WS3600

Latest ConditionsUpdated 1:01:40 PM GMT+01:01 Sunday, Nov 23, 2014
Currently Today's Max Today's Min Today's Average
Temperature 52.7°F11.5°C 55.0°F12.8°C 52.3°F11.3°C 53.5°F11.9°C
Dew Point 49.2°F9.6°C 49.9°F9.9°C 47.9°F8.8°C 48.9°F9.4°C
Winds - N16091.8 kmh N Calm Calm - Calm Calm
Wind Gusts -- -- - -
Humidity 89% 89% 83% 85%
Pressure 29.68 in1005.1 mb 29.68 in1005.1 mb 29.60 in1002.4 mb -
Hour Temp Dew Point Humidity Winds Wind Gusts Pressure Precip Precip Rate Daily Precip Total
01:01 PM 52.7°F11.5°C 49.2°F9.6°C 89% - N16091.8 kmh N -- 29.68 in1005.1 mb 0.00 in0.0 mm 0.00 in/hr0.0 mm/hr 0.00 in0.0 mm
12:56 PM 52.7°F11.5°C 49.2°F9.6°C 89% - N16091.8 kmh N -- 29.68 in1005.1 mb 0.00 in0.0 mm 0.00 in/hr0.0 mm/hr 0.00 in0.0 mm
12:51 PM 52.7°F11.5°C 49.2°F9.6°C 89% - N16091.8 kmh N -- 29.68 in1005.1 mb 0.00 in0.0 mm 0.00 in/hr0.0 mm/hr 0.00 in0.0 mm
12:46 PM 52.7°F11.5°C 49.2°F9.6°C 88% - N16091.8 kmh N -- 29.68 in1005.1 mb 0.00 in0.0 mm 0.00 in/hr0.0 mm/hr 0.00 in0.0 mm
12:41 PM 52.7°F11.5°C 49.2°F9.6°C 88% - N16091.8 kmh N -- 29.68 in1005.1 mb 0.00 in0.0 mm 0.00 in/hr0.0 mm/hr 0.00 in0.0 mm
12:36 PM 52.7°F11.5°C 49.2°F9.6°C 88% - N16091.8 kmh N -- 29.68 in1005.1 mb 0.00 in0.0 mm 0.00 in/hr0.0 mm/hr 0.00 in0.0 mm
12:31 PM 52.7°F11.5°C 48.9°F9.4°C 88% - N16091.8 kmh N -- 29.68 in1005.1 mb 0.00 in0.0 mm 0.00 in/hr0.0 mm/hr 0.00 in0.0 mm
12:26 PM 52.7°F11.5°C 48.9°F9.4°C 88% - N16091.8 kmh N -- 29.68 in1005.1 mb 0.00 in0.0 mm 0.00 in/hr0.0 mm/hr 0.00 in0.0 mm
12:21 PM 52.7°F11.5°C 48.9°F9.4°C 88% - N16091.8 kmh N -- 29.68 in1005.1 mb 0.00 in0.0 mm 0.00 in/hr0.0 mm/hr 0.00 in0.0 mm
12:16 PM 52.7°F11.5°C 48.9°F9.4°C 88% - N16091.8 kmh N -- 29.68 in1005.1 mb 0.00 in0.0 mm 0.00 in/hr0.0 mm/hr 0.00 in0.0 mm
12:11 PM 52.7°F11.5°C 48.9°F9.4°C 88% - N16091.8 kmh N -- 29.68 in1005.1 mb 0.00 in0.0 mm 0.00 in/hr0.0 mm/hr 0.00 in0.0 mm
12:06 PM 52.7°F11.5°C 48.9°F9.4°C 87% - N16091.8 kmh N -- 29.68 in1005.1 mb 0.00 in0.0 mm 0.00 in/hr0.0 mm/hr 0.00 in0.0 mm
12:01 PM 52.7°F11.5°C 48.9°F9.4°C 87% - N16091.8 kmh N -- 29.68 in1005.1 mb 0.00 in0.0 mm 0.00 in/hr0.0 mm/hr 0.00 in0.0 mm
11:56 AM 52.8°F11.6°C 48.7°F9.3°C 87% - N16091.8 kmh N -- 29.68 in1005.1 mb 0.00 in0.0 mm 0.00 in/hr0.0 mm/hr 0.00 in0.0 mm
11:51 AM 52.8°F11.6°C 48.7°F9.3°C 86% - N16091.8 kmh N -- 29.68 in1005.1 mb 0.00 in0.0 mm 0.00 in/hr0.0 mm/hr 0.00 in0.0 mm
11:46 AM 52.8°F11.6°C 48.7°F9.3°C 86% - N16091.8 kmh N -- 29.68 in1005.1 mb 0.00 in0.0 mm 0.00 in/hr0.0 mm/hr 0.00 in0.0 mm
11:41 AM 52.8°F11.6°C 48.7°F9.3°C 86% - N16091.8 kmh N -- 29.68 in1005.1 mb 0.00 in0.0 mm 0.00 in/hr0.0 mm/hr 0.00 in0.0 mm
11:36 AM 53.2°F11.8°C 49.1°F9.5°C 86% - N16091.8 kmh N -- 29.68 in1005.1 mb 0.00 in0.0 mm 0.00 in/hr0.0 mm/hr 0.00 in0.0 mm
11:31 AM 53.2°F11.8°C 49.1°F9.5°C 86% - N16091.8 kmh N -- 29.68 in1005.1 mb 0.00 in0.0 mm 0.00 in/hr0.0 mm/hr 0.00 in0.0 mm
11:26 AM 53.2°F11.8°C 49.1°F9.5°C 86% - N16091.8 kmh N -- 29.68 in1005.1 mb 0.00 in0.0 mm 0.00 in/hr0.0 mm/hr 0.00 in0.0 mm
11:21 AM 53.2°F11.8°C 49.1°F9.5°C 86% - N16091.8 kmh N -- 29.67 in1004.7 mb 0.00 in0.0 mm 0.00 in/hr0.0 mm/hr 0.00 in0.0 mm
11:16 AM 53.2°F11.8°C 49.1°F9.5°C 86% - N16091.8 kmh N -- 29.67 in1004.7 mb 0.00 in0.0 mm 0.00 in/hr0.0 mm/hr 0.00 in0.0 mm
11:11 AM 53.2°F11.8°C 49.1°F9.5°C 86% - N16091.8 kmh N -- 29.67 in1004.7 mb 0.00 in0.0 mm 0.00 in/hr0.0 mm/hr 0.00 in0.0 mm
11:06 AM 53.4°F11.9°C 49.3°F9.6°C 86% - N16091.8 kmh N -- 29.67 in1004.7 mb 0.00 in0.0 mm 0.00 in/hr0.0 mm/hr 0.00 in0.0 mm
11:01 AM 53.4°F11.9°C 49.3°F9.6°C 86% - N16091.8 kmh N -- 29.67 in1004.7 mb 0.00 in0.0 mm 0.00 in/hr0.0 mm/hr 0.00 in0.0 mm
10:56 AM 53.4°F11.9°C 49.3°F9.6°C 85% - N16091.8 kmh N -- 29.66 in1004.4 mb 0.00 in0.0 mm 0.00 in/hr0.0 mm/hr 0.00 in0.0 mm
10:51 AM 53.4°F11.9°C 49.3°F9.6°C 86% - N16091.8 kmh N -- 29.66 in1004.4 mb 0.00 in0.0 mm 0.00 in/hr0.0 mm/hr 0.00 in0.0 mm
10:46 AM 53.4°F11.9°C 49.3°F9.6°C 86% - N16091.8 kmh N -- 29.66 in1004.4 mb 0.00 in0.0 mm 0.00 in/hr0.0 mm/hr 0.00 in0.0 mm
10:41 AM 53.4°F11.9°C 49.3°F9.6°C 86% - N16091.8 kmh N -- 29.66 in1004.4 mb 0.00 in0.0 mm 0.00 in/hr0.0 mm/hr 0.00 in0.0 mm
10:36 AM 53.2°F11.8°C 49.1°F9.5°C 86% - N16091.8 kmh N -- 29.66 in1004.4 mb 0.00 in0.0 mm 0.00 in/hr0.0 mm/hr 0.00 in0.0 mm
10:31 AM 53.2°F11.8°C 49.1°F9.5°C 86% - N16091.8 kmh N -- 29.65 in1004.1 mb 0.00 in0.0 mm 0.00 in/hr0.0 mm/hr 0.00 in0.0 mm
10:26 AM 53.2°F11.8°C 49.1°F9.5°C 86% - N16091.8 kmh N -- 29.66 in1004.4 mb 0.00 in0.0 mm 0.00 in/hr0.0 mm/hr 0.00 in0.0 mm
10:21 AM 53.2°F11.8°C 49.1°F9.5°C 86% - N16091.8 kmh N -- 29.65 in1004.1 mb 0.00 in0.0 mm 0.00 in/hr0.0 mm/hr 0.00 in0.0 mm
10:16 AM 53.0°F11.7°C 48.9°F9.4°C 86% - N16091.8 kmh N -- 29.65 in1004.1 mb 0.00 in0.0 mm 0.00 in/hr0.0 mm/hr 0.00 in0.0 mm
10:10 AM 52.8°F11.6°C 48.7°F9.3°C 86% - N16091.8 kmh N -- 29.65 in1004.1 mb 0.00 in0.0 mm 0.00 in/hr0.0 mm/hr 0.00 in0.0 mm
10:05 AM 52.8°F11.6°C 48.7°F9.3°C 86% - N16091.8 kmh N -- 29.65 in1004.1 mb 0.00 in0.0 mm 0.00 in/hr0.0 mm/hr 0.00 in0.0 mm
10:00 AM 52.8°F11.6°C 48.7°F9.3°C 86% - N16091.8 kmh N -- 29.65 in1004.1 mb 0.00 in0.0 mm 0.00 in/hr0.0 mm/hr 0.00 in0.0 mm
09:55 AM 52.8°F11.6°C 48.7°F9.3°C 86% - N16091.8 kmh N -- 29.65 in1004.1 mb 0.00 in0.0 mm 0.00 in/hr0.0 mm/hr 0.00 in0.0 mm
09:50 AM 52.7°F11.5°C 48.5°F9.2°C 86% - N16091.8 kmh N -- 29.65 in1004.1 mb 0.00 in0.0 mm 0.00 in/hr0.0 mm/hr 0.00 in0.0 mm
09:45 AM 52.5°F11.4°C 48.4°F9.1°C 86% - N16091.8 kmh N -- 29.64 in1003.7 mb 0.00 in0.0 mm 0.00 in/hr0.0 mm/hr 0.00 in0.0 mm
09:40 AM 52.5°F11.4°C 48.4°F9.1°C 86% - N16091.8 kmh N -- 29.64 in1003.7 mb 0.00 in0.0 mm 0.00 in/hr0.0 mm/hr 0.00 in0.0 mm
09:35 AM 52.5°F11.4°C 48.4°F9.1°C 86% - N16091.8 kmh N -- 29.64 in1003.7 mb 0.00 in0.0 mm 0.00 in/hr0.0 mm/hr 0.00 in0.0 mm
09:30 AM 52.3°F11.3°C 48.2°F9.0°C 86% - N16091.8 kmh N -- 29.64 in1003.7 mb 0.00 in0.0 mm 0.00 in/hr0.0 mm/hr 0.00 in0.0 mm
09:25 AM 52.5°F11.4°C 48.1°F8.9°C 85% - N16091.8 kmh N -- 29.64 in1003.7 mb 0.00 in0.0 mm 0.00 in/hr0.0 mm/hr 0.00 in0.0 mm
09:20 AM 52.5°F11.4°C 48.1°F8.9°C 85% - N16091.8 kmh N -- 29.64 in1003.7 mb 0.00 in0.0 mm 0.00 in/hr0.0 mm/hr 0.00 in0.0 mm
09:15 AM 52.5°F11.4°C 48.1°F8.9°C 85% - N16091.8 kmh N -- 29.63 in1003.4 mb 0.00 in0.0 mm 0.00 in/hr0.0 mm/hr 0.00 in0.0 mm
09:10 AM 52.5°F11.4°C 48.1°F8.9°C 85% - N16091.8 kmh N -- 29.64 in1003.7 mb 0.00 in0.0 mm 0.00 in/hr0.0 mm/hr 0.00 in0.0 mm
09:05 AM 52.5°F11.4°C 48.1°F8.9°C 85% - N16091.8 kmh N -- 29.64 in1003.7 mb 0.00 in0.0 mm 0.00 in/hr0.0 mm/hr 0.00 in0.0 mm
09:00 AM 52.5°F11.4°C 48.1°F8.9°C 85% - N16091.8 kmh N -- 29.64 in1003.7 mb 0.00 in0.0 mm 0.00 in/hr0.0 mm/hr 0.00 in0.0 mm
08:55 AM 52.7°F11.5°C 47.9°F8.8°C 85% - N16091.8 kmh N -- 29.64 in1003.7 mb 0.00 in0.0 mm 0.00 in/hr0.0 mm/hr 0.00 in0.0 mm
08:50 AM 52.8°F11.6°C 48.1°F8.9°C 84% - N16091.8 kmh N -- 29.64 in1003.7 mb 0.00 in0.0 mm 0.00 in/hr0.0 mm/hr 0.00 in0.0 mm
08:45 AM 52.8°F11.6°C 48.1°F8.9°C 84% - N16091.8 kmh N -- 29.63 in1003.4 mb 0.00 in0.0 mm 0.00 in/hr0.0 mm/hr 0.00 in0.0 mm
08:40 AM 52.8°F11.6°C 48.1°F8.9°C 84% - N16091.8 kmh N -- 29.63 in1003.4 mb 0.00 in0.0 mm 0.00 in/hr0.0 mm/hr 0.00 in0.0 mm
08:35 AM 52.8°F11.6°C 48.1°F8.9°C 84% - N16091.8 kmh N -- 29.63 in1003.4 mb 0.00 in0.0 mm 0.00 in/hr0.0 mm/hr 0.00 in0.0 mm
08:30 AM 53.0°F11.7°C 48.3°F9.1°C 84% - N16091.8 kmh N -- 29.63 in1003.4 mb 0.00 in0.0 mm 0.00 in/hr0.0 mm/hr 0.00 in0.0 mm
08:25 AM 53.0°F11.7°C 48.3°F9.1°C 84% - N16091.8 kmh N -- 29.63 in1003.4 mb 0.00 in0.0 mm 0.00 in/hr0.0 mm/hr 0.00 in0.0 mm
08:20 AM 53.0°F11.7°C 48.3°F9.1°C 84% - N16091.8 kmh N -- 29.62 in1003.0 mb 0.00 in0.0 mm 0.00 in/hr0.0 mm/hr 0.00 in0.0 mm
08:15 AM 53.2°F11.8°C 48.2°F9.0°C 84% - N16091.8 kmh N -- 29.62 in1003.0 mb 0.00 in0.0 mm 0.00 in/hr0.0 mm/hr 0.00 in0.0 mm
08:10 AM 53.2°F11.8°C 48.2°F9.0°C 84% - N16091.8 kmh N -- 29.62 in1003.0 mb 0.00 in0.0 mm 0.00 in/hr0.0 mm/hr 0.00 in0.0 mm
08:05 AM 53.2°F11.8°C 48.2°F9.0°C 84% - N16091.8 kmh N -- 29.62 in1003.0 mb 0.00 in0.0 mm 0.00 in/hr0.0 mm/hr 0.00 in0.0 mm
08:00 AM 53.2°F11.8°C 48.2°F9.0°C 83% - N16091.8 kmh N -- 29.62 in1003.0 mb 0.00 in0.0 mm 0.00 in/hr0.0 mm/hr 0.00 in0.0 mm
07:55 AM 53.2°F11.8°C 48.2°F9.0°C 83% - N16091.8 kmh N -- 29.62 in1003.0 mb 0.00 in0.0 mm 0.00 in/hr0.0 mm/hr 0.00 in0.0 mm
07:50 AM 53.2°F11.8°C 48.2°F9.0°C 83% - N16091.8 kmh N -- 29.61 in1002.7 mb 0.00 in0.0 mm 0.00 in/hr0.0 mm/hr 0.00 in0.0 mm
07:44 AM 53.2°F11.8°C 48.2°F9.0°C 83% - N16091.8 kmh N -- 29.61 in1002.7 mb 0.00 in0.0 mm 0.00 in/hr0.0 mm/hr 0.00 in0.0 mm
07:39 AM 53.2°F11.8°C 48.2°F9.0°C 83% - N16091.8 kmh N -- 29.61 in1002.7 mb 0.00 in0.0 mm 0.00 in/hr0.0 mm/hr 0.00 in0.0 mm
07:34 AM 53.2°F11.8°C 48.2°F9.0°C 83% - N16091.8 kmh N -- 29.61 in1002.7 mb 0.00 in0.0 mm 0.00 in/hr0.0 mm/hr 0.00 in0.0 mm
07:29 AM 53.2°F11.8°C 48.2°F9.0°C 83% - N16091.8 kmh N -- 29.61 in1002.7 mb 0.00 in0.0 mm 0.00 in/hr0.0 mm/hr 0.00 in0.0 mm
07:24 AM 53.2°F11.8°C 48.2°F9.0°C 83% - N16091.8 kmh N -- 29.61 in1002.7 mb 0.00 in0.0 mm 0.00 in/hr0.0 mm/hr 0.00 in0.0 mm
07:19 AM 53.2°F11.8°C 48.2°F9.0°C 83% - N16091.8 kmh N -- 29.61 in1002.7 mb 0.00 in0.0 mm 0.00 in/hr0.0 mm/hr 0.00 in0.0 mm
07:14 AM 53.2°F11.8°C 48.2°F9.0°C 83% - N16091.8 kmh N -- 29.62 in1003.0 mb 0.00 in0.0 mm 0.00 in/hr0.0 mm/hr 0.00 in0.0 mm
07:09 AM 53.2°F11.8°C 48.2°F9.0°C 83% - N16091.8 kmh N -- 29.62 in1003.0 mb 0.00 in0.0 mm 0.00 in/hr0.0 mm/hr 0.00 in0.0 mm
07:04 AM 53.0°F11.7°C 48.0°F8.9°C 83% - N16091.8 kmh N -- 29.61 in1002.7 mb 0.00 in0.0 mm 0.00 in/hr0.0 mm/hr 0.00 in0.0 mm
06:59 AM 53.0°F11.7°C 48.0°F8.9°C 83% - N16091.8 kmh N -- 29.61 in1002.7 mb 0.00 in0.0 mm 0.00 in/hr0.0 mm/hr 0.00 in0.0 mm
06:54 AM 53.0°F11.7°C 48.0°F8.9°C 83% - N16091.8 kmh N -- 29.61 in1002.7 mb 0.00 in0.0 mm 0.00 in/hr0.0 mm/hr 0.00 in0.0 mm
06:49 AM 53.2°F11.8°C 48.5°F9.2°C 83% - N16091.8 kmh N -- 29.61 in1002.7 mb 0.00 in0.0 mm 0.00 in/hr0.0 mm/hr 0.00 in0.0 mm
06:44 AM 53.2°F11.8°C 48.5°F9.2°C 83% - N16091.8 kmh N -- 29.61 in1002.7 mb 0.00 in0.0 mm 0.00 in/hr0.0 mm/hr 0.00 in0.0 mm
06:39 AM 53.2°F11.8°C 48.5°F9.2°C 83% - N16091.8 kmh N -- 29.60 in1002.4 mb 0.00 in0.0 mm 0.00 in/hr0.0 mm/hr 0.00 in0.0 mm
06:34 AM 53.2°F11.8°C 48.5°F9.2°C 83% - N16091.8 kmh N -- 29.61 in1002.7 mb 0.00 in0.0 mm 0.00 in/hr0.0 mm/hr 0.00 in0.0 mm
06:29 AM 53.2°F11.8°C 48.5°F9.2°C 84% - N16091.8 kmh N -- 29.61 in1002.7 mb 0.00 in0.0 mm 0.00 in/hr0.0 mm/hr 0.00 in0.0 mm
06:24 AM 53.2°F11.8°C 48.5°F9.2°C 83% - N16091.8 kmh N -- 29.62 in1003.0 mb 0.00 in0.0 mm 0.00 in/hr0.0 mm/hr 0.00 in0.0 mm
06:19 AM 53.2°F11.8°C 48.5°F9.2°C 84% - N16091.8 kmh N -- 29.61 in1002.7 mb 0.00 in0.0 mm 0.00 in/hr0.0 mm/hr 0.00 in0.0 mm
06:14 AM 53.2°F11.8°C 48.5°F9.2°C 84% - N16091.8 kmh N -- 29.61 in1002.7 mb 0.00 in0.0 mm 0.00 in/hr0.0 mm/hr 0.00 in0.0 mm
06:09 AM 53.2°F11.8°C 48.5°F9.2°C 84% - N16091.8 kmh N -- 29.61 in1002.7 mb 0.00 in0.0 mm 0.00 in/hr0.0 mm/hr 0.00 in0.0 mm
06:04 AM 53.2°F11.8°C 48.5°F9.2°C 84% - N16091.8 kmh N -- 29.61 in1002.7 mb 0.00 in0.0 mm 0.00 in/hr0.0 mm/hr 0.00 in0.0 mm
05:59 AM 53.2°F11.8°C 48.5°F9.2°C 84% - N16091.8 kmh N -- 29.61 in1002.7 mb 0.00 in0.0 mm 0.00 in/hr0.0 mm/hr 0.00 in0.0 mm
05:54 AM 53.2°F11.8°C 48.5°F9.2°C 84% - N16091.8 kmh N -- 29.61 in1002.7 mb 0.00 in0.0 mm 0.00 in/hr0.0 mm/hr 0.00 in0.0 mm
05:49 AM 53.4°F11.9°C 48.7°F9.3°C 84% - N16091.8 kmh N -- 29.61 in1002.7 mb 0.00 in0.0 mm 0.00 in/hr0.0 mm/hr 0.00 in0.0 mm
05:44 AM 53.4°F11.9°C 48.7°F9.3°C 84% - N16091.8 kmh N -- 29.62 in1003.0 mb 0.00 in0.0 mm 0.00 in/hr0.0 mm/hr 0.00 in0.0 mm
05:39 AM 53.4°F11.9°C 48.7°F9.3°C 84% - N16091.8 kmh N -- 29.62 in1003.0 mb 0.00 in0.0 mm 0.00 in/hr0.0 mm/hr 0.00 in0.0 mm
05:34 AM 53.4°F11.9°C 48.7°F9.3°C 84% - N16091.8 kmh N -- 29.61 in1002.7 mb 0.00 in0.0 mm 0.00 in/hr0.0 mm/hr 0.00 in0.0 mm
05:29 AM 53.4°F11.9°C 48.7°F9.3°C 84% - N16091.8 kmh N -- 29.61 in1002.7 mb 0.00 in0.0 mm 0.00 in/hr0.0 mm/hr 0.00 in0.0 mm
05:24 AM 53.4°F11.9°C 48.7°F9.3°C 84% - N16091.8 kmh N -- 29.61 in1002.7 mb 0.00 in0.0 mm 0.00 in/hr0.0 mm/hr 0.00 in0.0 mm
05:19 AM 53.4°F11.9°C 48.7°F9.3°C 84% - N16091.8 kmh N -- 29.61 in1002.7 mb 0.00 in0.0 mm 0.00 in/hr0.0 mm/hr 0.00 in0.0 mm
05:14 AM 53.4°F11.9°C 48.7°F9.3°C 84% - N16091.8 kmh N -- 29.62 in1003.0 mb 0.00 in0.0 mm 0.00 in/hr0.0 mm/hr 0.00 in0.0 mm
05:09 AM 53.4°F11.9°C 48.7°F9.3°C 84% - N16091.8 kmh N -- 29.62 in1003.0 mb 0.00 in0.0 mm 0.00 in/hr0.0 mm/hr 0.00 in0.0 mm
05:04 AM 53.4°F11.9°C 48.7°F9.3°C 84% - N16091.8 kmh N -- 29.62 in1003.0 mb 0.00 in0.0 mm 0.00 in/hr0.0 mm/hr 0.00 in0.0 mm
04:59 AM 53.4°F11.9°C 48.7°F9.3°C 84% - N16091.8 kmh N -- 29.61 in1002.7 mb 0.00 in0.0 mm 0.00 in/hr0.0 mm/hr 0.00 in0.0 mm
04:54 AM 53.6°F12.0°C 48.8°F9.3°C 84% - N16091.8 kmh N -- 29.62 in1003.0 mb 0.00 in0.0 mm 0.00 in/hr0.0 mm/hr 0.00 in0.0 mm
04:49 AM 53.6°F12.0°C 48.8°F9.3°C 84% - N16091.8 kmh N -- 29.62 in1003.0 mb 0.00 in0.0 mm 0.00 in/hr0.0 mm/hr 0.00 in0.0 mm
04:44 AM 53.6°F12.0°C 48.8°F9.3°C 84% - N16091.8 kmh N -- 29.62 in1003.0 mb 0.00 in0.0 mm 0.00 in/hr0.0 mm/hr 0.00 in0.0 mm
04:39 AM 53.7°F12.1°C 49.0°F9.4°C 84% - N16091.8 kmh N -- 29.62 in1003.0 mb 0.00 in0.0 mm 0.00 in/hr0.0 mm/hr 0.00 in0.0 mm
04:34 AM 53.7°F12.1°C 49.0°F9.4°C 84% - N16091.8 kmh N -- 29.63 in1003.4 mb 0.00 in0.0 mm 0.00 in/hr0.0 mm/hr 0.00 in0.0 mm
04:29 AM 53.7°F12.1°C 49.0°F9.4°C 84% - N16091.8 kmh N -- 29.63 in1003.4 mb 0.00 in0.0 mm 0.00 in/hr0.0 mm/hr 0.00 in0.0 mm
04:24 AM 53.7°F12.1°C 49.0°F9.4°C 84% - N16091.8 kmh N -- 29.63 in1003.4 mb 0.00 in0.0 mm 0.00 in/hr0.0 mm/hr 0.00 in0.0 mm
04:19 AM 53.7°F12.1°C 49.0°F9.4°C 84% - N16091.8 kmh N -- 29.64 in1003.7 mb 0.00 in0.0 mm 0.00 in/hr0.0 mm/hr 0.00 in0.0 mm
04:14 AM 53.7°F12.1°C 49.0°F9.4°C 84% - N16091.8 kmh N -- 29.64 in1003.7 mb 0.00 in0.0 mm 0.00 in/hr0.0 mm/hr 0.00 in0.0 mm
04:09 AM 53.7°F12.1°C 49.0°F9.4°C 84% - N16091.8 kmh N -- 29.64 in1003.7 mb 0.00 in0.0 mm 0.00 in/hr0.0 mm/hr 0.00 in0.0 mm
04:04 AM 53.7°F12.1°C 49.0°F9.4°C 84% - N16091.8 kmh N -- 29.64 in1003.7 mb 0.00 in0.0 mm 0.00 in/hr0.0 mm/hr 0.00 in0.0 mm
03:59 AM 53.7°F12.1°C 49.0°F9.4°C 84% - N16091.8 kmh N -- 29.64 in1003.7 mb 0.00 in0.0 mm 0.00 in/hr0.0 mm/hr 0.00 in0.0 mm
03:53 AM 53.9°F12.2°C 49.2°F9.6°C 84% - N16091.8 kmh N -- 29.64 in1003.7 mb 0.00 in0.0 mm 0.00 in/hr0.0 mm/hr 0.00 in0.0 mm
03:48 AM 53.9°F12.2°C 49.2°F9.6°C 84% - N16091.8 kmh N -- 29.65 in1004.1 mb 0.00 in0.0 mm 0.00 in/hr0.0 mm/hr 0.00 in0.0 mm
03:44 AM 53.9°F12.2°C 49.2°F9.6°C 84% - N16091.8 kmh N -- 29.65 in1004.1 mb 0.00 in0.0 mm 0.00 in/hr0.0 mm/hr 0.00 in0.0 mm
03:38 AM 53.9°F12.2°C 49.2°F9.6°C 84% - N16091.8 kmh N -- 29.65 in1004.1 mb 0.00 in0.0 mm 0.00 in/hr0.0 mm/hr 0.00 in0.0 mm
03:33 AM 53.9°F12.2°C 49.2°F9.6°C 84% - N16091.8 kmh N -- 29.65 in1004.1 mb 0.00 in0.0 mm 0.00 in/hr0.0 mm/hr 0.00 in0.0 mm
03:28 AM 53.9°F12.2°C 49.2°F9.6°C 84% - N16091.8 kmh N -- 29.65 in1004.1 mb 0.00 in0.0 mm 0.00 in/hr0.0 mm/hr 0.00 in0.0 mm
03:23 AM 54.1°F12.3°C 49.3°F9.6°C 84% - N16091.8 kmh N -- 29.65 in1004.1 mb 0.00 in0.0 mm 0.00 in/hr0.0 mm/hr 0.00 in0.0 mm
03:18 AM 54.1°F12.3°C 49.3°F9.6°C 84% - N16091.8 kmh N -- 29.66 in1004.4 mb 0.00 in0.0 mm 0.00 in/hr0.0 mm/hr 0.00 in0.0 mm
03:13 AM 54.1°F12.3°C 49.3°F9.6°C 84% - N16091.8 kmh N -- 29.65 in1004.1 mb 0.00 in0.0 mm 0.00 in/hr0.0 mm/hr 0.00 in0.0 mm
03:08 AM 54.1°F12.3°C 49.3°F9.6°C 84% - N16091.8 kmh N -- 29.65 in1004.1 mb 0.00 in0.0 mm 0.00 in/hr0.0 mm/hr 0.00 in0.0 mm
03:03 AM 54.1°F12.3°C 49.3°F9.6°C 84% - N16091.8 kmh N -- 29.66 in1004.4 mb 0.00 in0.0 mm 0.00 in/hr0.0 mm/hr 0.00 in0.0 mm
02:58 AM 54.1°F12.3°C 49.3°F9.6°C 84% - N16091.8 kmh N -- 29.66 in1004.4 mb 0.00 in0.0 mm 0.00 in/hr0.0 mm/hr 0.00 in0.0 mm
02:53 AM 54.1°F12.3°C 49.3°F9.6°C 84% - N16091.8 kmh N -- 29.66 in1004.4 mb 0.00 in0.0 mm 0.00 in/hr0.0 mm/hr 0.00 in0.0 mm
02:48 AM 54.3°F12.4°C 49.5°F9.7°C 84% - N16091.8 kmh N -- 29.67 in1004.7 mb 0.00 in0.0 mm 0.00 in/hr0.0 mm/hr 0.00 in0.0 mm
02:43 AM 54.3°F12.4°C 49.5°F9.7°C 84% - N16091.8 kmh N -- 29.66 in1004.4 mb 0.00 in0.0 mm 0.00 in/hr0.0 mm/hr 0.00 in0.0 mm
02:38 AM 54.1°F12.3°C 49.3°F9.6°C 84% - N16091.8 kmh N -- 29.67 in1004.7 mb 0.00 in0.0 mm 0.00 in/hr0.0 mm/hr 0.00 in0.0 mm
02:33 AM 54.3°F12.4°C 49.8°F9.9°C 84% - N16091.8 kmh N -- 29.67 in1004.7 mb 0.00 in0.0 mm 0.00 in/hr0.0 mm/hr 0.00 in0.0 mm
02:28 AM 54.3°F12.4°C 49.8°F9.9°C 84% - N16091.8 kmh N -- 29.67 in1004.7 mb 0.00 in0.0 mm 0.00 in/hr0.0 mm/hr 0.00 in0.0 mm
02:23 AM 54.3°F12.4°C 49.8°F9.9°C 84% - N16091.8 kmh N -- 29.66 in1004.4 mb 0.00 in0.0 mm 0.00 in/hr0.0 mm/hr 0.00 in0.0 mm
02:18 AM 54.3°F12.4°C 49.8°F9.9°C 84% - N16091.8 kmh N -- 29.66 in1004.4 mb 0.00 in0.0 mm 0.00 in/hr0.0 mm/hr 0.00 in0.0 mm
02:13 AM 54.3°F12.4°C 49.8°F9.9°C 84% - N16091.8 kmh N -- 29.66 in1004.4 mb 0.00 in0.0 mm 0.00 in/hr0.0 mm/hr 0.00 in0.0 mm
02:08 AM 54.3°F12.4°C 49.8°F9.9°C 84% - N16091.8 kmh N -- 29.67 in1004.7 mb 0.00 in0.0 mm 0.00 in/hr0.0 mm/hr 0.00 in0.0 mm
02:03 AM 54.3°F12.4°C 49.8°F9.9°C 84% - N16091.8 kmh N -- 29.67 in1004.7 mb 0.00 in0.0 mm 0.00 in/hr0.0 mm/hr 0.00 in0.0 mm
01:58 AM 54.3°F12.4°C 49.8°F9.9°C 84% - N16091.8 kmh N -- 29.67 in1004.7 mb 0.00 in0.0 mm 0.00 in/hr0.0 mm/hr 0.00 in0.0 mm
01:53 AM 54.1°F12.3°C 49.3°F9.6°C 85% - N16091.8 kmh N -- 29.67 in1004.7 mb 0.00 in0.0 mm 0.00 in/hr0.0 mm/hr 0.00 in0.0 mm
01:48 AM 54.1°F12.3°C 49.3°F9.6°C 85% - N16091.8 kmh N -- 29.67 in1004.7 mb 0.00 in0.0 mm 0.00 in/hr0.0 mm/hr 0.00 in0.0 mm
01:43 AM 54.1°F12.3°C 49.3°F9.6°C 84% - N16091.8 kmh N -- 29.67 in1004.7 mb 0.00 in0.0 mm 0.00 in/hr0.0 mm/hr 0.00 in0.0 mm
01:38 AM 54.3°F12.4°C 49.5°F9.7°C 84% - N16091.8 kmh N -- 29.67 in1004.7 mb 0.00 in0.0 mm 0.00 in/hr0.0 mm/hr 0.00 in0.0 mm
01:33 AM 54.3°F12.4°C 49.5°F9.7°C 84% - N16091.8 kmh N -- 29.67 in1004.7 mb 0.00 in0.0 mm 0.00 in/hr0.0 mm/hr 0.00 in0.0 mm
01:28 AM 54.3°F12.4°C 49.5°F9.7°C 84% - N16091.8 kmh N -- 29.67 in1004.7 mb 0.00 in0.0 mm 0.00 in/hr0.0 mm/hr 0.00 in0.0 mm
01:23 AM 54.3°F12.4°C 49.5°F9.7°C 84% - N16091.8 kmh N -- 29.67 in1004.7 mb 0.00 in0.0 mm 0.00 in/hr0.0 mm/hr 0.00 in0.0 mm
01:18 AM 54.5°F12.5°C 49.7°F9.8°C 84% - N16091.8 kmh N -- 29.68 in1005.1 mb 0.00 in0.0 mm 0.00 in/hr0.0 mm/hr 0.00 in0.0 mm
01:13 AM 54.5°F12.5°C 49.7°F9.8°C 84% - N16091.8 kmh N -- 29.67 in1004.7 mb 0.00 in0.0 mm 0.00 in/hr0.0 mm/hr 0.00 in0.0 mm
01:08 AM 54.5°F12.5°C 49.7°F9.8°C 84% - N16091.8 kmh N -- 29.66 in1004.4 mb 0.00 in0.0 mm 0.00 in/hr0.0 mm/hr 0.00 in0.0 mm
01:03 AM 54.5°F12.5°C 49.7°F9.8°C 84% - N16091.8 kmh N -- 29.66 in1004.4 mb 0.00 in0.0 mm 0.00 in/hr0.0 mm/hr 0.00 in0.0 mm
12:58 AM 54.5°F12.5°C 49.7°F9.8°C 84% - N16091.8 kmh N -- 29.67 in1004.7 mb 0.00 in0.0 mm 0.00 in/hr0.0 mm/hr 0.00 in0.0 mm
12:53 AM 54.5°F12.5°C 49.7°F9.8°C 84% - N16091.8 kmh N -- 29.67 in1004.7 mb 0.00 in0.0 mm 0.00 in/hr0.0 mm/hr 0.00 in0.0 mm
12:48 AM 54.5°F12.5°C 49.7°F9.8°C 84% - N16091.8 kmh N -- 29.68 in1005.1 mb 0.00 in0.0 mm 0.00 in/hr0.0 mm/hr 0.00 in0.0 mm
12:43 AM 54.5°F12.5°C 49.7°F9.8°C 84% - N16091.8 kmh N -- 29.68 in1005.1 mb 0.00 in0.0 mm 0.00 in/hr0.0 mm/hr 0.00 in0.0 mm
12:38 AM 54.5°F12.5°C 49.7°F9.8°C 84% - N16091.8 kmh N -- 29.68 in1005.1 mb 0.00 in0.0 mm 0.00 in/hr0.0 mm/hr 0.00 in0.0 mm
12:33 AM 54.6°F12.6°C 49.5°F9.7°C 84% - N16091.8 kmh N -- 29.68 in1005.1 mb 0.00 in0.0 mm 0.00 in/hr0.0 mm/hr 0.00 in0.0 mm
12:28 AM 54.6°F12.6°C 49.5°F9.7°C 84% - N16091.8 kmh N -- 29.68 in1005.1 mb 0.00 in0.0 mm 0.00 in/hr0.0 mm/hr 0.00 in0.0 mm
12:23 AM 54.6°F12.6°C 49.5°F9.7°C 83% - N16091.8 kmh N -- 29.68 in1005.1 mb 0.00 in0.0 mm 0.00 in/hr0.0 mm/hr 0.00 in0.0 mm
12:18 AM 55.0°F12.8°C 49.9°F9.9°C 83% - N16091.8 kmh N -- 29.68 in1005.1 mb 0.00 in0.0 mm 0.00 in/hr0.0 mm/hr 0.00 in0.0 mm
12:12 AM 55.0°F12.8°C 49.9°F9.9°C 83% - N16091.8 kmh N -- 29.68 in1005.1 mb 0.00 in0.0 mm 0.00 in/hr0.0 mm/hr 0.00 in0.0 mm
12:08 AM 55.0°F12.8°C 49.9°F9.9°C 83% - N16091.8 kmh N -- 29.68 in1005.1 mb 0.00 in0.0 mm 0.00 in/hr0.0 mm/hr 0.00 in0.0 mm
12:03 AM 55.0°F12.8°C 49.9°F9.9°C 83% - N16091.8 kmh N -- 29.68 in1005.1 mb 0.00 in0.0 mm 0.00 in/hr0.0 mm/hr 0.00 in0.0 mm